createdAt,value
2017-03-30T00:00:03.828Z,11.59
2017-03-30T00:00:44.248Z,11.51
2017-03-30T00:01:24.646Z,11.48
2017-03-30T00:02:05.094Z,11.48
2017-03-30T00:02:45.520Z,11.49
2017-03-30T00:03:25.904Z,11.58
2017-03-30T00:04:06.343Z,11.58
2017-03-30T00:04:46.757Z,11.55
2017-03-30T00:05:27.129Z,11.59
2017-03-30T00:06:07.595Z,11.6
2017-03-30T00:06:47.998Z,11.62
2017-03-30T00:07:28.367Z,11.65
2017-03-30T00:08:08.791Z,11.73
2017-03-30T00:08:49.235Z,11.76
2017-03-30T00:09:29.650Z,11.83
2017-03-30T00:10:10.040Z,11.85
2017-03-30T00:10:50.430Z,11.88
2017-03-30T00:13:05.649Z,11.97
2017-03-30T00:13:54.052Z,12
2017-03-30T00:14:42.740Z,12.02
2017-03-30T00:15:31.641Z,12.07
2017-03-30T00:16:19.870Z,12.02
2017-03-30T00:17:08.617Z,12.08
2017-03-30T00:17:57.266Z,12.08
2017-03-30T00:18:45.668Z,12.12
2017-03-30T00:19:34.255Z,12.07
2017-03-30T00:20:22.613Z,12.21
2017-03-30T00:21:11.522Z,12.08
2017-03-30T00:21:59.782Z,12.17
2017-03-30T00:22:48.540Z,12.23
2017-03-30T00:23:36.801Z,12.32
2017-03-30T00:24:25.313Z,12.32
2017-03-30T00:25:13.832Z,12.33
2017-03-30T00:26:02.293Z,12.37
2017-03-30T00:26:51.156Z,12.54
2017-03-30T00:27:39.624Z,12.66
2017-03-30T00:28:28.514Z,12.58
2017-03-30T00:29:17.063Z,12.69
2017-03-30T00:30:05.312Z,12.75
2017-03-30T00:30:53.832Z,12.84
2017-03-30T00:31:42.610Z,12.93
2017-03-30T00:32:31.024Z,12.94
2017-03-30T00:33:19.768Z,13.01
2017-03-30T00:34:08.405Z,13.06
2017-03-30T00:34:56.785Z,13.08
2017-03-30T00:35:45.638Z,13.08
2017-03-30T00:36:34.178Z,13.13
2017-03-30T00:37:22.598Z,13.2
2017-03-30T00:38:11.523Z,13.12
2017-03-30T00:38:59.844Z,13.21
2017-03-30T00:39:48.694Z,13.12
2017-03-30T00:40:37.161Z,13.13
2017-03-30T00:41:25.808Z,13.11
2017-03-30T00:42:14.344Z,13.19
2017-03-30T00:43:02.911Z,13.13
2017-03-30T00:43:51.632Z,13.16
2017-03-30T00:44:40.610Z,13.26
2017-03-30T00:45:28.741Z,13.24
2017-03-30T00:46:17.653Z,13.27
2017-03-30T00:47:05.832Z,13.26
2017-03-30T00:47:54.184Z,13.3
2017-03-30T00:48:42.920Z,13.23
2017-03-30T00:49:31.631Z,13.27
2017-03-30T00:50:19.740Z,13.27
2017-03-30T00:51:08.603Z,13.37
2017-03-30T00:51:56.758Z,13.4
2017-03-30T00:52:45.779Z,13.37
2017-03-30T00:53:31.428Z,13.45
2017-03-30T00:54:11.875Z,13.36
2017-03-30T00:54:52.277Z,13.43
2017-03-30T00:55:32.716Z,13.4
2017-03-30T00:56:13.126Z,13.47
2017-03-30T00:56:53.522Z,13.46
2017-03-30T00:57:33.934Z,13.42
2017-03-30T00:58:16.349Z,13.42
2017-03-30T00:58:56.791Z,13.3
2017-03-30T00:59:37.219Z,13.3
2017-03-30T01:00:17.663Z,13.3
2017-03-30T01:00:58.021Z,13.39
2017-03-30T01:01:38.451Z,13.36
2017-03-30T01:02:18.908Z,13.36
2017-03-30T01:02:59.365Z,13.39
2017-03-30T01:03:39.720Z,13.37
2017-03-30T01:04:20.092Z,13.28
2017-03-30T01:05:00.486Z,13.31
2017-03-30T01:05:40.991Z,13.36
2017-03-30T01:06:21.414Z,13.45
2017-03-30T01:07:01.801Z,13.49
2017-03-30T01:07:42.235Z,13.46
2017-03-30T01:08:22.652Z,13.5
2017-03-30T01:09:03.115Z,13.6
2017-03-30T01:09:43.493Z,13.49
2017-03-30T01:10:23.927Z,13.54
2017-03-30T01:11:04.348Z,13.58
2017-03-30T01:11:44.743Z,13.64
2017-03-30T01:12:25.161Z,13.57
2017-03-30T01:13:05.627Z,13.62
2017-03-30T01:13:46.077Z,13.58
2017-03-30T01:14:26.467Z,13.67
2017-03-30T01:15:06.845Z,13.68
2017-03-30T01:15:47.262Z,13.67
2017-03-30T01:16:27.692Z,13.68
2017-03-30T01:17:08.077Z,13.64
2017-03-30T01:17:48.508Z,13.67
2017-03-30T01:18:28.932Z,13.67
2017-03-30T01:19:09.350Z,13.65
2017-03-30T01:19:49.756Z,13.64
2017-03-30T01:20:30.143Z,13.62
2017-03-30T01:21:10.538Z,13.71
2017-03-30T01:21:50.922Z,13.64
2017-03-30T01:22:31.335Z,13.79
2017-03-30T01:23:11.726Z,13.71
2017-03-30T01:23:52.222Z,13.73
2017-03-30T01:24:32.627Z,13.7
2017-03-30T01:25:13.023Z,13.7
2017-03-30T01:25:53.462Z,13.7
2017-03-30T01:26:33.883Z,13.7
2017-03-30T01:27:14.289Z,13.75
2017-03-30T01:27:54.738Z,13.7
2017-03-30T01:28:35.102Z,13.7
2017-03-30T01:29:15.572Z,13.73
2017-03-30T01:29:55.946Z,13.68
2017-03-30T01:30:36.369Z,13.7
2017-03-30T01:31:16.751Z,13.71
2017-03-30T01:31:57.188Z,13.64
2017-03-30T01:32:37.600Z,13.7
2017-03-30T01:33:18.015Z,13.64
2017-03-30T01:33:58.398Z,13.58
2017-03-30T01:34:38.825Z,13.64
2017-03-30T01:35:19.236Z,13.6
2017-03-30T01:35:59.647Z,13.57
2017-03-30T01:36:40.063Z,13.54
2017-03-30T01:37:20.527Z,13.6
2017-03-30T01:38:00.948Z,13.49
2017-03-30T01:38:41.329Z,13.5
2017-03-30T01:39:21.742Z,13.54
2017-03-30T01:40:02.159Z,13.54
2017-03-30T01:40:42.540Z,13.58
2017-03-30T01:41:22.991Z,13.61
2017-03-30T01:42:03.362Z,13.54
2017-03-30T01:42:43.778Z,13.54
2017-03-30T01:43:24.157Z,13.62
2017-03-30T01:44:04.631Z,13.6
2017-03-30T01:44:44.981Z,13.61
2017-03-30T01:45:25.466Z,13.64
2017-03-30T01:46:05.863Z,13.6
2017-03-30T01:46:46.251Z,13.61
2017-03-30T01:47:26.668Z,13.58
2017-03-30T01:48:07.102Z,13.61
2017-03-30T01:48:47.449Z,13.58
2017-03-30T01:49:27.928Z,13.6
2017-03-30T01:50:08.331Z,13.54
2017-03-30T01:50:48.703Z,13.6
2017-03-30T01:51:29.148Z,13.58
2017-03-30T01:52:09.605Z,13.5
2017-03-30T01:52:49.982Z,13.5
2017-03-30T01:53:30.411Z,13.52
2017-03-30T01:54:10.797Z,13.58
2017-03-30T01:54:51.206Z,13.64
2017-03-30T01:55:31.621Z,13.64
2017-03-30T01:56:12.011Z,13.61
2017-03-30T01:56:52.400Z,13.67
2017-03-30T01:57:32.845Z,13.62
2017-03-30T01:58:13.215Z,13.6
2017-03-30T01:58:53.655Z,13.7
2017-03-30T01:59:34.071Z,13.71
2017-03-30T02:00:14.495Z,13.6
2017-03-30T02:00:54.887Z,13.64
2017-03-30T02:01:35.323Z,13.64
2017-03-30T02:02:15.719Z,13.6
2017-03-30T02:02:56.127Z,13.71
2017-03-30T02:03:36.532Z,13.7
2017-03-30T02:04:16.929Z,13.78
2017-03-30T02:04:57.397Z,13.73
2017-03-30T02:05:37.777Z,13.76
2017-03-30T02:06:18.227Z,13.73
2017-03-30T02:06:58.611Z,13.76
2017-03-30T02:07:39.040Z,13.68
2017-03-30T02:08:19.439Z,13.71
2017-03-30T02:08:59.858Z,13.71
2017-03-30T02:09:40.310Z,13.73
2017-03-30T02:10:20.704Z,13.73
2017-03-30T02:11:01.116Z,13.85
2017-03-30T02:11:41.497Z,13.83
2017-03-30T02:12:21.901Z,13.79
2017-03-30T02:13:02.310Z,13.87
2017-03-30T02:13:42.693Z,13.85
2017-03-30T02:14:23.096Z,13.82
2017-03-30T02:15:03.542Z,13.87
2017-03-30T02:15:43.941Z,13.86
2017-03-30T02:16:24.357Z,13.89
2017-03-30T02:17:04.743Z,13.83
2017-03-30T02:17:45.174Z,13.91
2017-03-30T02:18:25.642Z,13.89
2017-03-30T02:19:06.036Z,13.89
2017-03-30T02:19:46.474Z,13.86
2017-03-30T02:20:26.855Z,13.86
2017-03-30T02:21:07.246Z,13.93
2017-03-30T02:21:47.722Z,13.94
2017-03-30T02:22:28.096Z,13.87
2017-03-30T02:23:08.460Z,13.91
2017-03-30T02:23:48.886Z,13.89
2017-03-30T02:24:29.269Z,13.8
2017-03-30T02:25:09.669Z,13.87
2017-03-30T02:25:50.119Z,13.83
2017-03-30T02:26:30.537Z,13.85
2017-03-30T02:27:10.913Z,13.91
2017-03-30T02:27:51.348Z,13.91
2017-03-30T02:28:31.712Z,13.89
2017-03-30T02:29:12.142Z,13.86
2017-03-30T02:29:52.495Z,13.83
2017-03-30T02:30:32.893Z,13.8
2017-03-30T02:31:13.321Z,13.89
2017-03-30T02:31:53.722Z,13.86
2017-03-30T02:32:34.266Z,13.91
2017-03-30T02:33:14.669Z,13.85
2017-03-30T02:33:55.094Z,13.89
2017-03-30T02:34:35.519Z,13.83
2017-03-30T02:35:15.889Z,13.91
2017-03-30T02:35:56.292Z,13.86
2017-03-30T02:36:36.722Z,13.87
2017-03-30T02:37:17.112Z,13.86
2017-03-30T02:37:57.537Z,13.87
2017-03-30T02:38:37.947Z,13.87
2017-03-30T02:39:18.378Z,13.87
2017-03-30T02:39:58.820Z,13.91
2017-03-30T02:40:41.801Z,13.89
2017-03-30T02:41:22.183Z,13.82
2017-03-30T02:42:02.624Z,13.82
2017-03-30T02:42:43.563Z,13.79
2017-03-30T02:43:24.719Z,13.83
2017-03-30T02:44:05.128Z,13.75
2017-03-30T02:44:45.526Z,13.76
2017-03-30T02:45:25.946Z,13.75
2017-03-30T02:46:06.356Z,13.71
2017-03-30T02:46:46.727Z,13.67
2017-03-30T02:47:27.145Z,13.67
2017-03-30T02:48:07.569Z,13.79
2017-03-30T02:48:47.926Z,13.85
2017-03-30T02:49:28.363Z,13.83
2017-03-30T02:50:08.754Z,13.83
2017-03-30T02:50:49.235Z,13.82
2017-03-30T02:51:29.641Z,13.85
2017-03-30T02:52:10.004Z,13.83
2017-03-30T02:52:50.563Z,13.8
2017-03-30T02:53:30.954Z,13.8
2017-03-30T02:54:11.320Z,13.86
2017-03-30T02:54:51.821Z,13.79
2017-03-30T02:55:32.239Z,13.82
2017-03-30T02:56:12.633Z,13.75
2017-03-30T02:56:53.052Z,13.86
2017-03-30T02:57:33.441Z,13.71
2017-03-30T02:58:13.839Z,13.68
2017-03-30T02:58:54.292Z,13.7
2017-03-30T02:59:34.662Z,13.71
2017-03-30T03:00:15.134Z,13.68
2017-03-30T03:00:55.595Z,13.65
2017-03-30T03:01:35.999Z,13.64
2017-03-30T03:02:16.454Z,13.58
2017-03-30T03:02:56.847Z,13.58
2017-03-30T03:03:37.249Z,13.5
2017-03-30T03:04:17.627Z,13.58
2017-03-30T03:04:58.054Z,13.5
2017-03-30T03:05:38.530Z,13.47
2017-03-30T03:06:18.912Z,13.57
2017-03-30T03:06:59.280Z,13.54
2017-03-30T03:07:39.732Z,13.43
2017-03-30T03:08:20.156Z,13.55
2017-03-30T03:09:00.575Z,13.52
2017-03-30T03:09:40.974Z,13.58
2017-03-30T03:10:21.369Z,13.55
2017-03-30T03:11:01.819Z,13.62
2017-03-30T03:11:42.195Z,13.62
2017-03-30T03:12:22.591Z,13.64
2017-03-30T03:13:02.981Z,13.6
2017-03-30T03:13:43.409Z,13.65
2017-03-30T03:14:23.761Z,13.8
2017-03-30T03:15:04.180Z,13.7
2017-03-30T03:15:44.629Z,13.76
2017-03-30T03:16:25.066Z,13.71
2017-03-30T03:17:05.425Z,13.76
2017-03-30T03:17:45.860Z,13.73
2017-03-30T03:18:26.263Z,13.78
2017-03-30T03:19:06.661Z,13.71
2017-03-30T03:19:47.132Z,13.73
2017-03-30T03:20:27.543Z,13.7
2017-03-30T03:21:07.931Z,13.73
2017-03-30T03:21:48.347Z,13.73
2017-03-30T03:22:28.753Z,13.64
2017-03-30T03:23:09.159Z,13.7
2017-03-30T03:23:50.117Z,13.8
2017-03-30T03:24:30.540Z,13.76
2017-03-30T03:25:10.963Z,13.67
2017-03-30T03:25:51.345Z,13.7
2017-03-30T03:26:31.792Z,13.67
2017-03-30T03:27:12.261Z,13.61
2017-03-30T03:27:52.741Z,13.64
2017-03-30T03:28:33.125Z,13.57
2017-03-30T03:29:13.501Z,13.54
2017-03-30T03:29:54.001Z,13.49
2017-03-30T03:30:34.438Z,13.4
2017-03-30T03:31:14.915Z,13.36
2017-03-30T03:31:55.309Z,13.31
2017-03-30T03:32:35.944Z,13.33
2017-03-30T03:33:16.241Z,13.28
2017-03-30T03:33:56.789Z,13.23
2017-03-30T03:34:40.668Z,13.3
2017-03-30T03:35:21.085Z,13.31
2017-03-30T03:36:01.634Z,13.17
2017-03-30T03:36:43.842Z,13.33
2017-03-30T03:37:24.241Z,13.28
2017-03-30T03:38:04.625Z,13.27
2017-03-30T03:38:45.078Z,13.36
2017-03-30T03:39:25.526Z,13.36
2017-03-30T03:40:05.928Z,13.37
2017-03-30T03:42:22.636Z,13.42
2017-03-30T03:44:45.450Z,13.43
2017-03-30T03:45:33.985Z,13.45
2017-03-30T03:46:20.629Z,13.46
2017-03-30T03:47:00.229Z,13.47
2017-03-30T03:47:40.638Z,13.49
2017-03-30T03:48:21.049Z,13.49
2017-03-30T03:49:01.517Z,13.42
2017-03-30T03:49:41.906Z,13.4
2017-03-30T03:50:22.328Z,13.42
2017-03-30T03:51:02.729Z,13.4
2017-03-30T03:51:43.170Z,13.31
2017-03-30T03:52:23.573Z,13.31
2017-03-30T03:53:04.148Z,13.47
2017-03-30T03:53:44.543Z,13.33
2017-03-30T03:54:25.006Z,13.45
2017-03-30T03:55:05.381Z,13.45
2017-03-30T03:55:45.783Z,13.55
2017-03-30T03:56:26.234Z,13.47
2017-03-30T03:57:06.636Z,13.55
2017-03-30T03:57:47.045Z,13.54
2017-03-30T03:58:27.466Z,13.57
2017-03-30T03:59:07.875Z,13.47
2017-03-30T03:59:48.293Z,13.55
2017-03-30T04:00:28.732Z,13.55
2017-03-30T04:01:09.148Z,13.52
2017-03-30T04:01:49.596Z,13.55
2017-03-30T04:02:30.003Z,13.54
2017-03-30T04:03:10.426Z,13.55
2017-03-30T04:03:50.834Z,13.57
2017-03-30T04:04:31.233Z,13.49
2017-03-30T04:05:11.599Z,13.5
2017-03-30T04:05:52.031Z,13.54
2017-03-30T04:06:32.473Z,13.52
2017-03-30T04:07:12.859Z,13.58
2017-03-30T04:07:53.257Z,13.5
2017-03-30T04:08:33.665Z,13.47
2017-03-30T04:09:14.053Z,13.49
2017-03-30T04:09:54.526Z,13.52
2017-03-30T04:10:34.923Z,13.57
2017-03-30T04:11:15.347Z,13.57
2017-03-30T04:11:55.741Z,13.54
2017-03-30T04:12:36.191Z,13.52
2017-03-30T04:13:16.557Z,13.47
2017-03-30T04:13:57.073Z,13.47
2017-03-30T04:14:37.492Z,13.46
2017-03-30T04:15:17.922Z,13.45
2017-03-30T04:15:58.320Z,13.4
2017-03-30T04:16:38.766Z,13.31
2017-03-30T04:17:19.153Z,13.31
2017-03-30T04:17:59.533Z,13.36
2017-03-30T04:18:39.946Z,13.31
2017-03-30T04:19:20.340Z,13.2
2017-03-30T04:20:00.811Z,13.19
2017-03-30T04:20:41.190Z,13.21
2017-03-30T04:21:21.630Z,13.2
2017-03-30T04:22:02.074Z,13.2
2017-03-30T04:22:42.470Z,13.2
2017-03-30T04:23:24.773Z,13.16
2017-03-30T04:24:05.210Z,13.17
2017-03-30T04:24:45.579Z,13.19
2017-03-30T04:25:25.949Z,13.26
2017-03-30T04:26:06.422Z,13.23
2017-03-30T04:26:46.848Z,13.17
2017-03-30T04:27:27.258Z,13.23
2017-03-30T04:28:07.661Z,13.21
2017-03-30T04:28:48.072Z,13.26
2017-03-30T04:29:28.508Z,13.19
2017-03-30T04:30:08.913Z,13.21
2017-03-30T04:30:49.377Z,13.17
2017-03-30T04:31:29.761Z,13.13
2017-03-30T04:32:10.187Z,13.11
2017-03-30T04:32:50.607Z,13.21
2017-03-30T04:33:30.992Z,13.11
2017-03-30T04:34:11.396Z,13.19
2017-03-30T04:34:51.855Z,13.13
2017-03-30T04:35:32.227Z,13.08
2017-03-30T04:36:12.605Z,13.13
2017-03-30T04:36:53.028Z,13.16
2017-03-30T04:37:33.466Z,13.08
2017-03-30T04:38:13.859Z,13.09
2017-03-30T04:38:54.260Z,13.06
2017-03-30T04:39:34.640Z,12.98
2017-03-30T04:40:15.159Z,12.88
2017-03-30T04:40:55.488Z,12.94
2017-03-30T04:41:35.880Z,12.94
2017-03-30T04:42:16.296Z,12.93
2017-03-30T04:42:56.739Z,12.95
2017-03-30T04:43:37.140Z,12.91
2017-03-30T04:44:17.530Z,12.93
2017-03-30T04:44:57.930Z,12.94
2017-03-30T04:45:38.331Z,13.01
2017-03-30T04:46:18.751Z,12.94
2017-03-30T04:46:59.131Z,12.91
2017-03-30T04:47:39.541Z,12.95
2017-03-30T04:48:19.937Z,12.93
2017-03-30T04:49:00.388Z,12.99
2017-03-30T04:49:40.792Z,12.9
2017-03-30T04:50:21.171Z,12.93
2017-03-30T04:51:01.611Z,12.93
2017-03-30T04:51:42.005Z,12.94
2017-03-30T04:52:22.401Z,12.91
2017-03-30T04:53:02.827Z,12.93
2017-03-30T04:53:43.258Z,12.88
2017-03-30T04:54:23.648Z,12.88
2017-03-30T04:55:04.079Z,12.99
2017-03-30T04:55:44.454Z,13.03
2017-03-30T04:56:24.886Z,13.05
2017-03-30T04:57:05.321Z,13.02
2017-03-30T04:57:45.796Z,13.11
2017-03-30T04:58:26.208Z,13.06
2017-03-30T04:59:06.616Z,13.08
2017-03-30T04:59:47.036Z,13.09
2017-03-30T05:00:27.499Z,13.08
2017-03-30T05:01:07.835Z,13.03
2017-03-30T05:01:48.283Z,13.09
2017-03-30T05:02:28.641Z,13.16
2017-03-30T05:03:09.070Z,13.2
2017-03-30T05:03:49.476Z,13.17
2017-03-30T05:04:29.866Z,13.19
2017-03-30T05:05:10.236Z,13.12
2017-03-30T05:05:50.666Z,13.17
2017-03-30T05:06:31.119Z,13.13
2017-03-30T05:07:11.488Z,13.13
2017-03-30T05:07:51.974Z,13.26
2017-03-30T05:08:32.334Z,13.17
2017-03-30T05:09:12.737Z,13.16
2017-03-30T05:09:53.185Z,13.26
2017-03-30T05:10:33.591Z,13.26
2017-03-30T05:11:13.940Z,13.3
2017-03-30T05:11:54.373Z,13.39
2017-03-30T05:12:34.758Z,13.37
2017-03-30T05:13:15.178Z,13.36
2017-03-30T05:13:55.585Z,13.33
2017-03-30T05:14:36.027Z,13.37
2017-03-30T05:15:16.377Z,13.49
2017-03-30T05:15:56.806Z,13.5
2017-03-30T05:16:37.229Z,13.52
2017-03-30T05:17:17.643Z,13.54
2017-03-30T05:17:58.077Z,13.55
2017-03-30T05:18:38.451Z,13.64
2017-03-30T05:19:18.877Z,13.64
2017-03-30T05:19:59.275Z,13.67
2017-03-30T05:20:39.688Z,13.6
2017-03-30T05:21:20.121Z,13.61
2017-03-30T05:22:00.509Z,13.67
2017-03-30T05:22:40.927Z,13.75
2017-03-30T05:23:21.398Z,13.71
2017-03-30T05:24:01.761Z,13.75
2017-03-30T05:24:42.189Z,13.71
2017-03-30T05:25:22.592Z,13.68
2017-03-30T05:26:03.055Z,13.7
2017-03-30T05:26:43.397Z,13.71
2017-03-30T05:27:23.863Z,13.75
2017-03-30T05:28:04.412Z,13.76
2017-03-30T05:28:44.787Z,13.67
2017-03-30T05:29:25.174Z,13.78
2017-03-30T05:30:05.651Z,13.75
2017-03-30T05:30:46.060Z,13.7
2017-03-30T05:31:26.455Z,13.76
2017-03-30T05:32:06.917Z,13.73
2017-03-30T05:32:47.364Z,13.7
2017-03-30T05:33:27.763Z,13.75
2017-03-30T05:34:08.177Z,13.71
2017-03-30T05:34:48.611Z,13.75
2017-03-30T05:35:29.015Z,13.78
2017-03-30T05:36:09.416Z,13.68
2017-03-30T05:36:49.862Z,13.73
2017-03-30T05:37:30.251Z,13.8
2017-03-30T05:38:10.632Z,13.65
2017-03-30T05:38:51.109Z,13.73
2017-03-30T05:39:31.454Z,13.78
2017-03-30T05:40:11.865Z,13.7
2017-03-30T05:40:52.315Z,13.75
2017-03-30T05:41:32.689Z,13.7
2017-03-30T05:42:13.124Z,13.7
2017-03-30T05:42:53.731Z,13.8
2017-03-30T05:43:34.147Z,13.75
2017-03-30T05:44:15.364Z,13.75
2017-03-30T05:44:55.833Z,13.73
2017-03-30T05:45:36.197Z,13.6
2017-03-30T05:46:16.616Z,13.65
2017-03-30T05:46:57.002Z,13.61
2017-03-30T05:47:37.394Z,13.58
2017-03-30T05:48:17.795Z,13.49
2017-03-30T05:48:58.268Z,13.54
2017-03-30T05:49:38.736Z,13.5
2017-03-30T05:50:19.219Z,13.43
2017-03-30T05:50:59.611Z,13.42
2017-03-30T05:51:40.055Z,13.27
2017-03-30T05:52:20.416Z,13.4
2017-03-30T05:53:00.864Z,13.37
2017-03-30T05:53:41.640Z,13.39
2017-03-30T05:54:22.025Z,13.43
2017-03-30T05:55:02.457Z,13.39
2017-03-30T05:55:42.873Z,13.42
2017-03-30T05:56:23.280Z,13.42
2017-03-30T05:57:03.868Z,13.43
2017-03-30T05:57:44.838Z,13.52
2017-03-30T05:58:25.214Z,13.49
2017-03-30T05:59:05.664Z,13.5
2017-03-30T05:59:46.063Z,13.45
2017-03-30T06:00:26.444Z,13.52
2017-03-30T06:01:07.902Z,13.5
2017-03-30T06:01:48.241Z,13.58
2017-03-30T06:02:28.680Z,13.62
2017-03-30T06:03:09.141Z,13.64
2017-03-30T06:03:49.584Z,13.68
2017-03-30T06:04:29.991Z,13.67
2017-03-30T06:05:10.426Z,13.68
2017-03-30T06:05:50.814Z,13.67
2017-03-30T06:06:31.215Z,13.78
2017-03-30T06:07:11.661Z,13.7
2017-03-30T06:07:52.079Z,13.79
2017-03-30T06:08:32.447Z,13.73
2017-03-30T06:09:12.876Z,13.8
2017-03-30T06:09:53.305Z,13.8
2017-03-30T06:10:33.685Z,13.86
2017-03-30T06:11:14.117Z,13.93
2017-03-30T06:11:54.489Z,14.03
2017-03-30T06:12:35.001Z,14.04
2017-03-30T06:13:15.388Z,14.08
2017-03-30T06:13:55.872Z,14.15
2017-03-30T06:14:36.243Z,14.18
2017-03-30T06:15:16.685Z,14.13
2017-03-30T06:15:57.132Z,14.23
2017-03-30T06:16:39.304Z,14.3
2017-03-30T06:17:19.703Z,14.33
2017-03-30T06:18:00.087Z,14.38
2017-03-30T06:18:40.570Z,14.48
2017-03-30T06:19:20.963Z,14.49
2017-03-30T06:20:01.372Z,14.52
2017-03-30T06:20:41.823Z,14.58
2017-03-30T06:21:22.242Z,14.58
2017-03-30T06:22:02.687Z,14.59
2017-03-30T06:22:43.091Z,14.62
2017-03-30T06:23:23.491Z,14.62
2017-03-30T06:24:03.937Z,14.62
2017-03-30T06:24:44.343Z,14.7
2017-03-30T06:25:24.742Z,14.59
2017-03-30T06:26:05.200Z,14.77
2017-03-30T06:26:45.599Z,14.78
2017-03-30T06:27:26.010Z,14.79
2017-03-30T06:28:06.453Z,14.85
2017-03-30T06:28:46.799Z,14.86
2017-03-30T06:29:27.269Z,14.86
2017-03-30T06:30:07.653Z,14.81
2017-03-30T06:30:48.042Z,14.87
2017-03-30T06:31:28.472Z,14.97
2017-03-30T06:32:08.830Z,14.99
2017-03-30T06:32:49.310Z,15.04
2017-03-30T06:33:29.685Z,15.1
2017-03-30T06:34:10.101Z,15.04
2017-03-30T06:34:50.512Z,15.07
2017-03-30T06:35:30.932Z,15.08
2017-03-30T06:36:11.375Z,15.11
2017-03-30T06:36:51.753Z,15.18
2017-03-30T06:37:32.153Z,15.17
2017-03-30T06:38:12.600Z,15.19
2017-03-30T06:38:53.026Z,15.26
2017-03-30T06:39:33.380Z,15.29
2017-03-30T06:40:13.853Z,15.37
2017-03-30T06:40:54.238Z,15.35
2017-03-30T06:41:34.667Z,15.39
2017-03-30T06:42:15.104Z,15.33
2017-03-30T06:42:55.488Z,15.39
2017-03-30T06:43:35.879Z,15.37
2017-03-30T06:44:16.324Z,15.39
2017-03-30T06:44:56.747Z,15.35
2017-03-30T06:45:37.150Z,15.37
2017-03-30T06:47:51.862Z,15.36
2017-03-30T06:48:40.204Z,15.35
2017-03-30T06:49:28.723Z,15.43
2017-03-30T06:50:12.510Z,15.43
2017-03-30T06:51:01.367Z,15.5
2017-03-30T06:51:50.080Z,15.41
2017-03-30T06:52:38.632Z,15.57
2017-03-30T06:53:19.917Z,15.5
2017-03-30T06:54:00.392Z,15.57
2017-03-30T06:54:40.759Z,15.5
2017-03-30T06:55:21.219Z,15.54
2017-03-30T06:56:01.584Z,15.6
2017-03-30T06:56:42.021Z,15.57
2017-03-30T06:57:22.409Z,15.62
2017-03-30T06:58:02.813Z,15.67
2017-03-30T06:58:43.274Z,15.76
2017-03-30T06:59:23.712Z,15.73
2017-03-30T07:00:04.167Z,15.98
2017-03-30T07:00:44.591Z,16.06
2017-03-30T07:01:25.167Z,16.13
2017-03-30T07:02:05.615Z,16.25
2017-03-30T07:02:46.037Z,16.41
2017-03-30T07:03:26.428Z,16.44
2017-03-30T07:04:06.801Z,16.58
2017-03-30T07:04:47.266Z,16.66
2017-03-30T07:05:27.652Z,16.73
2017-03-30T07:06:08.072Z,16.72
2017-03-30T07:06:48.523Z,16.79
2017-03-30T07:07:28.922Z,16.8
2017-03-30T07:08:09.321Z,16.87
2017-03-30T07:08:49.774Z,16.99
2017-03-30T07:09:30.181Z,17.07
2017-03-30T07:10:10.617Z,17.1
2017-03-30T07:10:50.984Z,17.22
2017-03-30T07:11:31.437Z,17.31
2017-03-30T07:12:11.829Z,17.39
2017-03-30T07:12:52.223Z,17.54
2017-03-30T07:13:32.649Z,17.66
2017-03-30T07:14:13.092Z,17.66
2017-03-30T07:14:53.465Z,17.72
2017-03-30T07:15:33.894Z,17.69
2017-03-30T07:16:14.245Z,17.69
2017-03-30T07:16:54.650Z,17.65
2017-03-30T07:17:35.069Z,17.71
2017-03-30T07:18:15.522Z,17.69
2017-03-30T07:18:55.923Z,17.72
2017-03-30T07:19:36.351Z,17.8
2017-03-30T07:20:16.714Z,17.86
2017-03-30T07:20:57.120Z,17.82
2017-03-30T07:21:37.537Z,17.93
2017-03-30T07:22:17.950Z,17.87
2017-03-30T07:22:58.407Z,17.97
2017-03-30T07:23:38.821Z,17.94
2017-03-30T07:24:19.254Z,18.11
2017-03-30T07:24:59.672Z,18.23
2017-03-30T07:25:40.088Z,18.24
2017-03-30T07:26:20.538Z,18.3
2017-03-30T07:27:00.928Z,18.3
2017-03-30T07:27:41.378Z,18.37
2017-03-30T07:28:21.767Z,18.42
2017-03-30T07:29:02.181Z,18.49
2017-03-30T07:29:42.611Z,18.45
2017-03-30T07:30:23.047Z,18.57
2017-03-30T07:31:03.461Z,18.66
2017-03-30T07:31:43.869Z,18.73
2017-03-30T07:32:24.249Z,18.76
2017-03-30T07:33:04.622Z,18.78
2017-03-30T07:33:45.067Z,18.83
2017-03-30T07:34:25.503Z,18.91
2017-03-30T07:35:05.904Z,18.86
2017-03-30T07:35:46.302Z,19.04
2017-03-30T07:36:26.756Z,19.11
2017-03-30T07:37:07.142Z,19.12
2017-03-30T07:37:47.550Z,19.17
2017-03-30T07:38:27.992Z,19.23
2017-03-30T07:39:08.460Z,19.19
2017-03-30T07:39:49.430Z,19.12
2017-03-30T07:40:29.863Z,19.08
2017-03-30T07:41:10.261Z,19.11
2017-03-30T07:41:50.696Z,19.11
2017-03-30T07:42:31.135Z,19.07
2017-03-30T07:43:11.510Z,19
2017-03-30T07:43:51.946Z,19.04
2017-03-30T07:44:32.324Z,19.07
2017-03-30T07:45:12.747Z,19.09
2017-03-30T07:45:53.208Z,19.29
2017-03-30T07:46:33.567Z,19.2
2017-03-30T07:47:14.003Z,19.32
2017-03-30T07:47:54.447Z,19.27
2017-03-30T07:48:34.870Z,19.41
2017-03-30T07:49:15.261Z,19.23
2017-03-30T07:49:55.696Z,19.3
2017-03-30T07:50:36.075Z,19.35
2017-03-30T07:51:16.481Z,19.3
2017-03-30T07:51:56.931Z,19.34
2017-03-30T07:52:37.305Z,19.37
2017-03-30T07:53:17.770Z,19.38
2017-03-30T07:53:58.157Z,19.39
2017-03-30T07:54:38.553Z,19.59
2017-03-30T07:55:18.967Z,19.57
2017-03-30T07:55:59.399Z,19.66
2017-03-30T07:56:39.795Z,19.79
2017-03-30T07:57:20.208Z,19.87
2017-03-30T07:58:00.608Z,20.03
2017-03-30T07:58:41.001Z,20.27
2017-03-30T07:59:21.478Z,20.64
2017-03-30T08:00:01.910Z,20.78
2017-03-30T08:00:42.298Z,21.01
2017-03-30T08:01:22.690Z,21.32
2017-03-30T08:02:03.165Z,21.53
2017-03-30T08:02:43.609Z,21.72
2017-03-30T08:03:24.033Z,21.85
2017-03-30T08:04:04.408Z,21.96
2017-03-30T08:04:44.838Z,22.14
2017-03-30T08:05:25.237Z,22.33
2017-03-30T08:06:05.642Z,22.4
2017-03-30T08:06:46.063Z,22.53
2017-03-30T08:07:26.490Z,22.7
2017-03-30T08:08:06.893Z,22.84
2017-03-30T08:08:47.369Z,22.96
2017-03-30T08:09:27.748Z,23.21
2017-03-30T08:10:08.173Z,23.34
2017-03-30T08:10:48.605Z,23.69
2017-03-30T08:11:29.004Z,24.06
2017-03-30T08:12:09.413Z,24.46
2017-03-30T08:12:49.900Z,24.93
2017-03-30T08:13:30.268Z,25.06
2017-03-30T08:14:10.684Z,25.3
2017-03-30T08:14:51.139Z,25.24
2017-03-30T08:15:31.561Z,25.43
2017-03-30T08:16:11.944Z,25.37
2017-03-30T08:16:52.370Z,25.44
2017-03-30T08:17:32.747Z,25.85
2017-03-30T08:18:13.167Z,26.06
2017-03-30T08:18:53.565Z,26.27
2017-03-30T08:19:34.056Z,26.39
2017-03-30T08:20:14.510Z,26.48
2017-03-30T08:20:54.912Z,26.52
2017-03-30T08:21:35.341Z,26.6
2017-03-30T08:22:15.865Z,26.74
2017-03-30T08:22:56.262Z,26.97
2017-03-30T08:23:36.680Z,27.25
2017-03-30T08:24:17.113Z,27.5
2017-03-30T08:24:57.564Z,27.79
2017-03-30T08:25:38.000Z,27.9
2017-03-30T08:26:18.364Z,28.13
2017-03-30T08:26:58.802Z,28.55
2017-03-30T08:27:39.245Z,28.97
2017-03-30T08:28:19.751Z,29.57
2017-03-30T08:29:00.113Z,30.01
2017-03-30T11:01:58.634Z,47.58
2017-03-30T11:02:39.035Z,47.7
2017-03-30T11:03:19.483Z,47.94
2017-03-30T11:03:59.914Z,48.1
2017-03-30T11:04:40.937Z,48.26
2017-03-30T11:05:21.355Z,48.53
2017-03-30T11:06:02.704Z,48.74
2017-03-30T11:06:44.171Z,48.82
2017-03-30T11:07:25.499Z,49.07
2017-03-30T11:08:07.409Z,49.18
2017-03-30T11:08:50.521Z,49.31
2017-03-30T11:09:31.488Z,49.68
2017-03-30T11:10:11.939Z,49.83
2017-03-30T11:10:53.225Z,50.07
2017-03-30T11:11:34.709Z,50.33
2017-03-30T11:12:15.141Z,50.4
2017-03-30T11:12:55.586Z,50.4
2017-03-30T11:13:36.594Z,50.25
2017-03-30T11:14:17.035Z,50.07
2017-03-30T11:14:57.523Z,49.71
2017-03-30T11:15:38.085Z,49.21
2017-03-30T11:16:18.384Z,48.52
2017-03-30T11:16:58.848Z,47.95
2017-03-30T11:17:39.317Z,47.66
2017-03-30T11:18:19.714Z,47.54
2017-03-30T11:19:00.753Z,47.64
2017-03-30T11:19:42.001Z,47.92
2017-03-30T11:20:22.449Z,48.08
2017-03-30T11:21:02.872Z,48.41
2017-03-30T11:21:44.079Z,48.55
2017-03-30T11:22:24.585Z,48.58
2017-03-30T11:23:04.936Z,48.64
2017-03-30T11:23:45.407Z,48.82
2017-03-30T11:24:27.415Z,49.18
2017-03-30T11:25:08.609Z,49.38
2017-03-30T11:25:49.923Z,49.71
2017-03-30T11:26:31.099Z,49.98
2017-03-30T11:27:12.172Z,49.79
2017-03-30T11:27:52.617Z,49.57
2017-03-30T11:28:33.084Z,49.44
2017-03-30T11:29:13.531Z,49.34
2017-03-30T11:29:53.969Z,49.12